createdAt,value
2024-01-20T00:00:37.178Z,2.43
2024-01-20T00:03:40.258Z,3.00
2024-01-20T00:06:45.524Z,3.33
2024-01-20T00:09:51.760Z,2.20
2024-01-20T00:12:55.748Z,1.83
2024-01-20T00:15:59.819Z,2.30
2024-01-20T00:19:03.391Z,1.90
2024-01-20T00:22:06.624Z,2.20
2024-01-20T00:25:11.708Z,1.77
2024-01-20T00:28:15.670Z,2.13
2024-01-20T00:31:18.898Z,2.27
2024-01-20T00:34:22.055Z,4.07
2024-01-20T00:37:25.386Z,2.23
2024-01-20T00:40:29.804Z,2.00
2024-01-20T00:43:32.774Z,1.77
2024-01-20T00:46:36.222Z,2.13
2024-01-20T00:49:39.284Z,2.13
2024-01-20T00:52:42.403Z,3.53
2024-01-20T00:55:47.165Z,1.77
2024-01-20T00:58:50.173Z,1.77
2024-01-20T01:01:53.277Z,2.33
2024-01-20T01:04:56.504Z,2.07
2024-01-20T01:07:59.783Z,2.10
2024-01-20T01:11:04.688Z,2.70
2024-01-20T01:14:07.865Z,1.63
2024-01-20T01:17:10.957Z,1.97
2024-01-20T01:20:14.491Z,1.63
2024-01-20T01:23:17.825Z,2.17
2024-01-20T01:26:22.584Z,1.50
2024-01-20T01:29:25.839Z,1.60
2024-01-20T01:32:29.079Z,1.50
2024-01-20T01:35:32.171Z,1.60
2024-01-20T01:38:35.186Z,2.07
2024-01-20T01:41:39.571Z,2.80
2024-01-20T01:44:42.570Z,1.67
2024-01-20T01:47:45.924Z,2.00
2024-01-20T01:50:50.630Z,1.90
2024-01-20T01:53:54.149Z,1.83
2024-01-20T01:57:01.244Z,1.63
2024-01-20T02:00:05.626Z,1.50
2024-01-20T02:03:09.518Z,1.80
2024-01-20T02:06:12.630Z,2.13
2024-01-20T02:09:15.853Z,2.03
2024-01-20T02:12:21.074Z,1.70
2024-01-20T02:15:25.075Z,1.40
2024-01-20T02:18:28.281Z,2.00
2024-01-20T02:21:31.389Z,1.53
2024-01-20T02:24:35.942Z,1.30
2024-01-20T02:27:39.419Z,2.20
2024-01-20T02:30:43.930Z,1.87
2024-01-20T02:33:47.076Z,1.60
2024-01-20T02:36:50.184Z,1.70
2024-01-20T02:39:55.052Z,1.40
2024-01-20T02:42:58.041Z,1.70
2024-01-20T02:46:01.107Z,1.23
2024-01-20T02:49:04.370Z,1.47
2024-01-20T02:52:07.934Z,1.43
2024-01-20T02:55:12.384Z,1.50
2024-01-20T02:58:15.406Z,1.17
2024-01-20T03:01:18.657Z,1.60
2024-01-20T03:04:21.975Z,1.40
2024-01-20T03:07:25.089Z,1.30
2024-01-20T03:10:29.575Z,1.80
2024-01-20T03:13:32.638Z,1.20
2024-01-20T03:16:35.595Z,1.33
2024-01-20T03:19:38.600Z,1.10
2024-01-20T03:22:41.593Z,1.33
2024-01-20T03:25:45.943Z,1.30
2024-01-20T03:28:48.966Z,1.50
2024-01-20T03:31:52.875Z,1.20
2024-01-20T03:34:55.947Z,1.33
2024-01-20T03:37:58.952Z,1.60
2024-01-20T03:41:03.602Z,1.60
2024-01-20T03:44:06.911Z,1.83
2024-01-20T03:47:10.008Z,1.20
2024-01-20T03:50:13.265Z,1.10
2024-01-20T03:53:16.327Z,1.47
2024-01-20T03:56:20.682Z,1.30
2024-01-20T03:59:23.715Z,1.47
2024-01-20T04:02:26.734Z,1.43
2024-01-20T04:05:29.716Z,1.20
2024-01-20T04:08:32.805Z,1.40
2024-01-20T04:11:37.294Z,1.40
2024-01-20T04:14:40.270Z,1.37
2024-01-20T04:17:43.349Z,1.50
2024-01-20T04:20:46.844Z,1.30
2024-01-20T04:23:49.951Z,1.20
2024-01-20T04:26:54.425Z,1.27
2024-01-20T04:29:57.597Z,1.30
2024-01-20T04:33:00.744Z,1.10
2024-01-20T04:36:04.010Z,1.60
2024-01-20T04:39:07.061Z,1.80
2024-01-20T04:42:11.515Z,1.87
2024-01-20T04:45:16.076Z,1.40
2024-01-20T04:48:21.181Z,1.07
2024-01-20T04:51:25.254Z,1.80
2024-01-20T04:54:28.662Z,4.07
2024-01-20T04:57:33.182Z,3.73
2024-01-20T05:00:37.270Z,3.40
2024-01-20T05:03:40.416Z,1.60
2024-01-20T05:06:46.725Z,1.20
2024-01-20T05:09:49.777Z,1.20
2024-01-20T05:12:54.223Z,1.00
2024-01-20T05:15:57.300Z,2.47
2024-01-20T05:19:00.565Z,1.20
2024-01-20T05:22:03.713Z,1.20
2024-01-20T05:25:07.557Z,1.40
2024-01-20T05:28:11.955Z,1.20
2024-01-20T05:31:14.926Z,1.67
2024-01-20T05:34:18.117Z,1.53
2024-01-20T05:37:21.152Z,1.23
2024-01-20T05:40:24.146Z,1.10
2024-01-20T05:43:28.508Z,2.60
2024-01-20T05:46:31.570Z,1.20
2024-01-20T05:49:34.812Z,1.13
2024-01-20T05:52:37.871Z,1.33
2024-01-20T05:55:40.893Z,1.10
2024-01-20T05:58:45.359Z,1.30
2024-01-20T06:01:51.753Z,1.20
2024-01-20T06:04:54.890Z,1.20
2024-01-20T06:07:57.859Z,1.17
2024-01-20T06:11:00.973Z,1.10
2024-01-20T06:14:05.497Z,2.00
2024-01-20T06:17:08.544Z,1.30
2024-01-20T06:20:12.204Z,1.37
2024-01-20T06:23:15.453Z,1.10
2024-01-20T06:26:18.813Z,1.53
2024-01-20T06:29:23.179Z,1.30
2024-01-20T06:32:26.183Z,1.23
2024-01-20T06:35:29.206Z,1.30
2024-01-20T06:38:32.414Z,1.10
2024-01-20T06:41:35.403Z,1.10
2024-01-20T06:44:39.827Z,1.40
2024-01-20T06:47:42.955Z,1.10
2024-01-20T06:50:46.023Z,1.17
2024-01-20T06:53:50.979Z,1.07
2024-01-20T06:56:54.069Z,1.10
2024-01-20T06:59:58.451Z,1.20
2024-01-20T07:03:01.586Z,4.63
2024-01-20T07:06:05.813Z,1.87
2024-01-20T07:09:08.906Z,2.63
2024-01-20T07:12:12.007Z,1.70
2024-01-20T07:15:16.639Z,5.87
2024-01-20T07:18:19.858Z,7.87
2024-01-20T07:21:22.953Z,8.37
2024-01-20T07:24:26.009Z,9.37
2024-01-20T07:27:29.033Z,8.30
2024-01-20T07:30:33.569Z,8.60
2024-01-20T07:33:36.794Z,7.73
2024-01-20T07:36:40.171Z,7.70
2024-01-20T07:39:43.225Z,7.03
2024-01-20T07:42:46.359Z,6.27
2024-01-20T07:45:55.178Z,5.73
2024-01-20T07:48:58.335Z,4.80
2024-01-20T07:52:01.410Z,4.00
2024-01-20T07:55:04.395Z,4.80
2024-01-20T07:58:07.366Z,5.93
2024-01-20T08:01:11.797Z,3.80
2024-01-20T08:04:14.898Z,3.23
2024-01-20T08:07:18.013Z,2.77
2024-01-20T08:10:21.362Z,3.40
2024-01-20T08:13:24.373Z,3.97
2024-01-20T08:16:30.038Z,2.73
2024-01-20T08:19:33.298Z,7.13
2024-01-20T08:22:36.636Z,4.40
2024-01-20T08:25:39.711Z,4.20
2024-01-20T08:28:42.838Z,3.50
2024-01-20T08:31:47.217Z,3.70
2024-01-20T08:34:50.445Z,3.57
2024-01-20T08:37:53.462Z,3.23
2024-01-20T08:40:56.656Z,5.40
2024-01-20T08:43:59.921Z,4.80
2024-01-20T08:47:04.340Z,5.20
2024-01-20T08:50:08.089Z,7.40
2024-01-20T08:53:11.120Z,5.10
2024-01-20T08:56:14.176Z,2.53
2024-01-20T08:59:17.888Z,3.20
2024-01-20T09:02:22.276Z,4.53
2024-01-20T09:05:25.322Z,4.70
2024-01-20T09:08:28.389Z,3.57
2024-01-20T09:11:31.468Z,7.80
2024-01-20T09:14:34.515Z,6.10
2024-01-20T09:17:38.900Z,3.30
2024-01-20T09:20:42.082Z,2.10
2024-01-20T09:23:45.257Z,2.37
2024-01-20T09:26:48.258Z,2.60
2024-01-20T09:29:51.254Z,4.83
2024-01-20T09:32:55.805Z,2.27
2024-01-20T09:35:58.866Z,9.20
2024-01-20T09:39:02.029Z,8.43
2024-01-20T09:42:05.896Z,27.27
2024-01-20T09:45:09.665Z,24.10
2024-01-20T09:48:14.249Z,10.80
2024-01-20T09:51:17.592Z,24.73
2024-01-20T09:54:22.531Z,16.20
2024-01-20T09:57:26.380Z,21.07
2024-01-20T10:00:30.310Z,50.53
2024-01-20T10:03:36.939Z,51.67
2024-01-20T10:06:40.348Z,38.40
2024-01-20T10:09:43.609Z,43.17
2024-01-20T10:12:50.735Z,30.43
2024-01-20T10:15:56.128Z,33.20
2024-01-20T10:19:00.602Z,29.37
2024-01-20T10:22:09.332Z,21.70
2024-01-20T10:25:19.175Z,21.03
2024-01-20T10:28:24.993Z,24.53
2024-01-20T10:31:28.156Z,18.97
2024-01-20T10:34:32.714Z,20.00
2024-01-20T10:37:39.140Z,16.30
2024-01-20T10:40:44.178Z,12.70
2024-01-20T10:43:55.165Z,19.53
2024-01-20T10:47:05.005Z,11.53
2024-01-20T10:50:10.638Z,12.73
2024-01-20T10:53:13.810Z,12.40
2024-01-20T10:56:18.485Z,9.53
2024-01-20T10:59:27.195Z,10.03
2024-01-20T11:02:30.469Z,10.77
2024-01-20T11:05:35.536Z,8.70
2024-01-20T11:08:38.667Z,11.77
2024-01-20T11:11:42.795Z,12.67
2024-01-20T11:14:52.998Z,8.00
2024-01-20T11:17:56.067Z,10.23
2024-01-20T11:21:02.677Z,7.90
2024-01-20T11:24:06.711Z,7.30
2024-01-20T11:27:11.409Z,8.43
2024-01-20T11:30:17.403Z,10.90
2024-01-20T11:33:21.110Z,6.93
2024-01-20T11:36:29.501Z,7.07
2024-01-20T11:39:32.616Z,8.20
2024-01-20T11:42:35.956Z,9.80
2024-01-20T11:45:39.157Z,8.90
2024-01-20T11:48:43.624Z,10.10
2024-01-20T11:51:48.262Z,7.67
2024-01-20T11:54:51.496Z,11.23
2024-01-20T11:57:56.535Z,7.87
2024-01-20T12:01:01.374Z,11.07
2024-01-20T12:04:04.974Z,7.27
2024-01-20T12:07:09.934Z,7.63
2024-01-20T12:10:13.804Z,6.70
2024-01-20T12:13:17.955Z,6.83
2024-01-20T12:16:21.714Z,6.83
2024-01-20T12:19:24.871Z,7.17
2024-01-20T12:22:29.391Z,7.23
2024-01-20T12:25:32.945Z,6.50
2024-01-20T12:28:36.574Z,5.43
2024-01-20T12:31:39.715Z,4.90
2024-01-20T12:34:42.893Z,6.33
2024-01-20T12:37:49.948Z,4.97
2024-01-20T12:40:53.173Z,5.70
2024-01-20T12:43:56.201Z,4.50
2024-01-20T12:46:59.218Z,4.97
2024-01-20T12:50:02.490Z,9.80
2024-01-20T12:53:07.917Z,6.00
2024-01-20T12:56:11.013Z,4.47
2024-01-20T12:59:14.117Z,4.40
2024-01-20T13:02:17.176Z,5.23
2024-01-20T13:05:20.368Z,4.40
2024-01-20T13:08:24.989Z,4.20
2024-01-20T13:11:29.481Z,5.07
2024-01-20T13:14:32.850Z,4.10
2024-01-20T13:17:36.904Z,5.10
2024-01-20T13:20:40.075Z,5.00
2024-01-20T13:23:47.710Z,3.80
2024-01-20T13:26:50.814Z,4.10
2024-01-20T13:29:53.821Z,3.43
2024-01-20T13:32:56.921Z,4.90
2024-01-20T13:35:59.993Z,4.27
2024-01-20T13:39:06.359Z,4.60
2024-01-20T13:42:11.086Z,4.60
2024-01-20T13:45:14.208Z,4.20
2024-01-20T13:48:17.363Z,4.20
2024-01-20T13:51:22.989Z,4.23
2024-01-20T13:54:27.691Z,5.20
2024-01-20T13:57:31.418Z,4.03
2024-01-20T14:00:34.956Z,3.70
2024-01-20T14:03:38.392Z,4.50
2024-01-20T14:06:41.845Z,3.67
2024-01-20T14:09:46.409Z,5.17
2024-01-20T14:12:49.594Z,3.67
2024-01-20T14:15:52.808Z,4.27
2024-01-20T14:18:56.813Z,4.77
2024-01-20T14:21:59.892Z,3.93
2024-01-20T14:25:06.462Z,4.83
2024-01-20T14:28:09.975Z,4.80
2024-01-20T14:31:14.040Z,3.80
2024-01-20T14:34:17.199Z,4.30
2024-01-20T14:37:20.578Z,4.80
2024-01-20T14:40:25.026Z,3.83
2024-01-20T14:43:28.184Z,4.20
2024-01-20T14:46:33.092Z,4.23
2024-01-20T14:49:36.370Z,3.40
2024-01-20T14:52:39.474Z,3.73
2024-01-20T14:55:43.851Z,4.50
2024-01-20T14:58:47.135Z,4.07
2024-01-20T15:01:50.245Z,4.33
2024-01-20T15:04:53.774Z,4.53
2024-01-20T15:07:57.233Z,5.07
2024-01-20T15:11:01.692Z,3.97
2024-01-20T15:14:08.863Z,4.03
2024-01-20T15:17:13.358Z,4.17
2024-01-20T15:20:17.412Z,4.50
2024-01-20T15:23:22.508Z,4.33
2024-01-20T15:26:26.917Z,3.93
2024-01-20T15:29:31.605Z,4.43
2024-01-20T15:32:34.667Z,4.87
2024-01-20T15:35:38.252Z,4.13
2024-01-20T15:38:41.327Z,4.37
2024-01-20T15:41:47.209Z,4.90
2024-01-20T15:44:50.509Z,3.90
2024-01-20T15:47:53.642Z,4.60
2024-01-20T15:50:56.744Z,3.37
2024-01-20T15:53:59.746Z,3.43
2024-01-20T15:57:04.890Z,3.70
2024-01-20T16:00:08.864Z,3.03
2024-01-20T16:03:11.947Z,3.13
2024-01-20T16:06:15.179Z,3.00
2024-01-20T16:09:18.596Z,3.13
2024-01-20T16:12:23.176Z,4.33
2024-01-20T16:15:26.238Z,4.70
2024-01-20T16:18:29.552Z,3.00
2024-01-20T16:21:33.317Z,4.37
2024-01-20T16:24:36.586Z,3.27
2024-01-20T16:27:41.128Z,3.10
2024-01-20T16:30:44.394Z,3.17
2024-01-20T16:33:47.863Z,3.90
2024-01-20T16:36:51.533Z,3.10
2024-01-20T16:39:58.909Z,3.60
2024-01-20T16:43:03.327Z,2.67
2024-01-20T16:46:06.493Z,3.40
2024-01-20T16:49:09.920Z,3.20
2024-01-20T16:52:13.821Z,4.03
2024-01-20T16:55:17.281Z,2.83
2024-01-20T16:58:21.707Z,4.40
2024-01-20T17:01:24.842Z,4.00
2024-01-20T17:04:28.281Z,3.70
2024-01-20T17:07:31.413Z,3.90
2024-01-20T17:10:34.912Z,2.83
2024-01-20T17:13:39.602Z,3.27
2024-01-20T17:16:42.659Z,2.70
2024-01-20T17:19:45.902Z,3.53
2024-01-20T17:22:49.026Z,3.50
2024-01-20T17:25:53.401Z,2.93
2024-01-20T17:28:58.324Z,5.20
2024-01-20T17:32:02.790Z,3.03
2024-01-20T17:35:06.404Z,3.40
2024-01-20T17:38:09.458Z,5.27
2024-01-20T17:41:12.589Z,3.27
2024-01-20T17:44:17.603Z,3.20
2024-01-20T17:47:20.722Z,3.77
2024-01-20T17:50:25.411Z,3.90
2024-01-20T17:53:34.814Z,3.40
2024-01-20T17:56:38.181Z,4.00
2024-01-20T17:59:42.637Z,4.23
2024-01-20T18:02:47.096Z,4.17
2024-01-20T18:05:50.341Z,5.13
2024-01-20T18:08:53.600Z,5.53
2024-01-20T18:11:56.642Z,7.77
2024-01-20T18:15:01.114Z,6.93
2024-01-20T18:18:04.330Z,7.30
2024-01-20T18:21:10.667Z,8.60
2024-01-20T18:24:14.353Z,4.30
2024-01-20T18:27:17.463Z,3.50
2024-01-20T18:30:21.900Z,3.83
2024-01-20T18:33:26.032Z,4.33
2024-01-20T18:36:29.137Z,3.73
2024-01-20T18:39:32.264Z,4.80
2024-01-20T18:42:35.315Z,4.47
2024-01-20T18:45:40.122Z,4.73
2024-01-20T18:48:43.354Z,5.17
2024-01-20T18:51:46.777Z,4.10
2024-01-20T18:54:49.836Z,3.93
2024-01-20T18:57:52.856Z,4.40
2024-01-20T19:00:57.385Z,4.10
2024-01-20T19:04:00.506Z,3.70
2024-01-20T19:07:03.592Z,4.63
2024-01-20T19:10:10.989Z,4.37
2024-01-20T19:13:14.146Z,4.67
2024-01-20T19:16:18.803Z,3.83
2024-01-20T19:19:21.924Z,4.30
2024-01-20T19:22:25.001Z,4.20
2024-01-20T19:25:28.222Z,4.47
2024-01-20T19:28:31.265Z,4.37
2024-01-20T19:31:36.495Z,3.97
2024-01-20T19:34:39.705Z,4.93
2024-01-20T19:37:42.829Z,4.97
2024-01-20T19:40:46.506Z,4.87
2024-01-20T19:43:49.586Z,6.00
2024-01-20T19:46:54.027Z,5.23
2024-01-20T19:49:57.069Z,5.10
2024-01-20T19:53:00.411Z,4.90
2024-01-20T19:56:05.737Z,4.90
2024-01-20T19:59:08.738Z,4.90
2024-01-20T20:02:13.214Z,5.07
2024-01-20T20:05:16.889Z,5.37
2024-01-20T20:08:24.023Z,5.83
2024-01-20T20:11:27.184Z,4.80
2024-01-20T20:14:30.169Z,4.30
2024-01-20T20:17:35.361Z,4.47
2024-01-20T20:20:38.514Z,4.87
2024-01-20T20:23:41.596Z,5.50
2024-01-20T20:26:44.798Z,4.87
2024-01-20T20:29:47.929Z,6.93
2024-01-20T20:32:52.656Z,4.40
2024-01-20T20:35:55.662Z,5.83
2024-01-20T20:38:58.908Z,5.10
2024-01-20T20:42:01.962Z,7.60
2024-01-20T20:45:05.959Z,7.00
2024-01-20T20:48:10.527Z,5.03
2024-01-20T20:51:13.600Z,5.07
2024-01-20T20:54:16.792Z,4.90
2024-01-20T20:57:20.228Z,4.33
2024-01-20T21:00:23.330Z,4.90
2024-01-20T21:03:27.892Z,5.93
2024-01-20T21:06:31.053Z,7.87
2024-01-20T21:09:34.131Z,4.67
2024-01-20T21:12:37.233Z,4.90
2024-01-20T21:15:41.963Z,5.97
2024-01-20T21:18:46.611Z,5.87
2024-01-20T21:21:49.836Z,6.90
2024-01-20T21:24:53.704Z,5.10
2024-01-20T21:27:56.828Z,5.27
2024-01-20T21:31:01.423Z,5.23
2024-01-20T21:34:05.983Z,5.20
2024-01-20T21:37:09.382Z,5.00
2024-01-20T21:40:13.322Z,5.77
2024-01-20T21:43:17.432Z,5.40
2024-01-20T21:46:25.993Z,6.13
2024-01-20T21:49:38.435Z,6.07
2024-01-20T21:52:42.084Z,5.73
2024-01-20T21:55:46.154Z,5.37
2024-01-20T21:58:50.312Z,5.90
2024-01-20T22:01:54.002Z,5.60
2024-01-20T22:04:59.256Z,6.03
2024-01-20T22:08:03.253Z,5.77
2024-01-20T22:11:07.714Z,4.43
2024-01-20T22:14:11.561Z,5.10
2024-01-20T22:17:18.197Z,4.80
2024-01-20T22:20:34.185Z,4.43
2024-01-20T22:23:42.521Z,5.00
2024-01-20T22:26:50.843Z,4.33
2024-01-20T22:30:02.116Z,4.80
2024-01-20T22:33:11.951Z,5.37
2024-01-20T22:36:18.625Z,4.90
2024-01-20T22:39:28.870Z,5.40
2024-01-20T22:42:36.202Z,4.30
2024-01-20T22:45:47.171Z,5.37
2024-01-20T22:48:56.498Z,5.40
2024-01-20T22:52:06.052Z,7.47
2024-01-20T22:55:14.467Z,4.67
2024-01-20T22:58:21.241Z,4.23
2024-01-20T23:01:28.389Z,4.43
2024-01-20T23:04:36.975Z,4.30
2024-01-20T23:07:47.222Z,4.43
2024-01-20T23:10:54.693Z,4.00
2024-01-20T23:14:03.392Z,7.20
2024-01-20T23:17:13.409Z,4.83
2024-01-20T23:20:27.647Z,4.40
2024-01-20T23:23:41.098Z,4.40
2024-01-20T23:26:51.623Z,4.43
2024-01-20T23:29:57.387Z,4.37
2024-01-20T23:33:08.430Z,4.30
2024-01-20T23:36:17.933Z,5.27
2024-01-20T23:39:31.738Z,4.07
2024-01-20T23:42:41.819Z,4.17
2024-01-20T23:45:51.440Z,4.00
2024-01-20T23:48:59.208Z,4.30
2024-01-20T23:52:09.334Z,4.00
2024-01-20T23:55:19.679Z,4.23
2024-01-20T23:58:29.379Z,3.93
